sensor_id;sensor_type;location;lat;lon;timestamp;P1;durP1;ratioP1;P2;durP2;ratioP2
27560;SDS011;15003;47.476;11.990;2022-08-25T00:00:44;5.30;;;4.18;;
27560;SDS011;15003;47.476;11.990;2022-08-25T00:03:13;4.43;;;3.75;;
27560;SDS011;15003;47.476;11.990;2022-08-25T00:05:40;9.43;;;4.38;;
27560;SDS011;15003;47.476;11.990;2022-08-25T00:08:06;6.18;;;4.43;;
27560;SDS011;15003;47.476;11.990;2022-08-25T00:10:33;6.03;;;4.30;;
27560;SDS011;15003;47.476;11.990;2022-08-25T00:13:01;5.55;;;4.20;;
27560;SDS011;15003;47.476;11.990;2022-08-25T00:15:28;4.85;;;4.10;;
27560;SDS011;15003;47.476;11.990;2022-08-25T00:17:55;6.35;;;4.10;;
27560;SDS011;15003;47.476;11.990;2022-08-25T00:20:21;5.28;;;4.30;;
27560;SDS011;15003;47.476;11.990;2022-08-25T00:22:47;5.25;;;3.75;;
27560;SDS011;15003;47.476;11.990;2022-08-25T00:25:13;4.28;;;3.88;;
27560;SDS011;15003;47.476;11.990;2022-08-25T00:27:38;25.63;;;5.85;;
27560;SDS011;15003;47.476;11.990;2022-08-25T00:30:05;7.07;;;4.15;;
27560;SDS011;15003;47.476;11.990;2022-08-25T00:32:31;6.10;;;4.68;;
27560;SDS011;15003;47.476;11.990;2022-08-25T00:34:57;4.60;;;4.20;;
27560;SDS011;15003;47.476;11.990;2022-08-25T00:37:23;5.13;;;3.90;;
27560;SDS011;15003;47.476;11.990;2022-08-25T00:39:49;4.78;;;3.88;;
27560;SDS011;15003;47.476;11.990;2022-08-25T00:42:14;4.00;;;3.60;;
27560;SDS011;15003;47.476;11.990;2022-08-25T00:44:40;4.47;;;4.00;;
27560;SDS011;15003;47.476;11.990;2022-08-25T00:47:06;4.32;;;3.92;;
27560;SDS011;15003;47.476;11.990;2022-08-25T00:49:33;5.35;;;4.00;;
27560;SDS011;15003;47.476;11.990;2022-08-25T00:57:28;3.97;;;3.55;;
27560;SDS011;15003;47.476;11.990;2022-08-25T00:59:59;3.90;;;3.40;;
27560;SDS011;15003;47.476;11.990;2022-08-25T01:02:35;4.35;;;3.50;;
27560;SDS011;15003;47.476;11.990;2022-08-25T01:05:02;3.67;;;3.38;;
27560;SDS011;15003;47.476;11.990;2022-08-25T01:07:28;4.13;;;3.63;;
27560;SDS011;15003;47.476;11.990;2022-08-25T01:09:54;3.70;;;3.30;;
27560;SDS011;15003;47.476;11.990;2022-08-25T01:12:20;5.45;;;4.00;;
27560;SDS011;15003;47.476;11.990;2022-08-25T01:14:46;4.60;;;3.75;;
27560;SDS011;15003;47.476;11.990;2022-08-25T01:17:13;4.82;;;3.65;;
27560;SDS011;15003;47.476;11.990;2022-08-25T01:19:39;3.65;;;3.35;;
27560;SDS011;15003;47.476;11.990;2022-08-25T01:22:06;3.97;;;3.58;;
27560;SDS011;15003;47.476;11.990;2022-08-25T01:27:23;4.05;;;3.67;;
27560;SDS011;15003;47.476;11.990;2022-08-25T01:29:49;4.90;;;3.65;;
27560;SDS011;15003;47.476;11.990;2022-08-25T01:32:15;4.00;;;3.67;;
27560;SDS011;15003;47.476;11.990;2022-08-25T01:34:41;5.82;;;4.60;;
27560;SDS011;15003;47.476;11.990;2022-08-25T01:37:10;5.13;;;3.80;;
27560;SDS011;15003;47.476;11.990;2022-08-25T01:39:38;4.32;;;3.85;;
27560;SDS011;15003;47.476;11.990;2022-08-25T01:42:12;5.13;;;4.05;;
27560;SDS011;15003;47.476;11.990;2022-08-25T01:44:53;5.25;;;4.30;;
27560;SDS011;15003;47.476;11.990;2022-08-25T01:47:19;4.70;;;4.18;;
27560;SDS011;15003;47.476;11.990;2022-08-25T01:49:45;5.68;;;4.03;;
27560;SDS011;15003;47.476;11.990;2022-08-25T01:52:15;5.45;;;3.83;;
27560;SDS011;15003;47.476;11.990;2022-08-25T01:54:49;4.22;;;3.83;;
27560;SDS011;15003;47.476;11.990;2022-08-25T01:57:15;5.53;;;3.80;;
27560;SDS011;15003;47.476;11.990;2022-08-25T01:59:41;5.57;;;4.13;;
27560;SDS011;15003;47.476;11.990;2022-08-25T02:02:07;6.43;;;4.38;;
27560;SDS011;15003;47.476;11.990;2022-08-25T02:04:33;5.03;;;4.05;;
27560;SDS011;15003;47.476;11.990;2022-08-25T02:07:00;4.95;;;4.07;;
27560;SDS011;15003;47.476;11.990;2022-08-25T02:09:28;4.30;;;3.90;;
27560;SDS011;15003;47.476;11.990;2022-08-25T02:11:54;4.65;;;4.25;;
27560;SDS011;15003;47.476;11.990;2022-08-25T02:14:20;4.57;;;4.13;;
27560;SDS011;15003;47.476;11.990;2022-08-25T02:16:48;4.78;;;4.25;;
27560;SDS011;15003;47.476;11.990;2022-08-25T02:19:17;4.75;;;4.28;;
27560;SDS011;15003;47.476;11.990;2022-08-25T02:21:45;4.70;;;4.18;;
27560;SDS011;15003;47.476;11.990;2022-08-25T02:24:11;4.40;;;4.00;;
27560;SDS011;15003;47.476;11.990;2022-08-25T02:26:37;4.30;;;3.90;;
27560;SDS011;15003;47.476;11.990;2022-08-25T02:29:04;3.92;;;3.63;;
27560;SDS011;15003;47.476;11.990;2022-08-25T02:31:30;4.65;;;3.75;;
27560;SDS011;15003;47.476;11.990;2022-08-25T02:33:56;5.18;;;3.90;;
27560;SDS011;15003;47.476;11.990;2022-08-25T02:36:22;4.25;;;3.60;;
27560;SDS011;15003;47.476;11.990;2022-08-25T02:38:48;6.28;;;4.45;;
27560;SDS011;15003;47.476;11.990;2022-08-25T02:41:19;4.28;;;3.88;;
27560;SDS011;15003;47.476;11.990;2022-08-25T02:43:47;7.63;;;4.40;;
27560;SDS011;15003;47.476;11.990;2022-08-25T02:46:15;5.97;;;4.07;;
27560;SDS011;15003;47.476;11.990;2022-08-25T02:48:44;4.55;;;3.85;;
27560;SDS011;15003;47.476;11.990;2022-08-25T02:51:11;4.30;;;3.90;;
27560;SDS011;15003;47.476;11.990;2022-08-25T02:53:38;4.57;;;4.10;;
27560;SDS011;15003;47.476;11.990;2022-08-25T02:56:06;4.90;;;4.15;;
27560;SDS011;15003;47.476;11.990;2022-08-25T02:58:35;4.93;;;3.85;;
27560;SDS011;15003;47.476;11.990;2022-08-25T03:01:02;5.28;;;4.32;;
27560;SDS011;15003;47.476;11.990;2022-08-25T03:03:29;4.82;;;3.78;;
27560;SDS011;15003;47.476;11.990;2022-08-25T03:05:55;4.47;;;3.95;;
27560;SDS011;15003;47.476;11.990;2022-08-25T03:08:20;4.20;;;3.78;;
27560;SDS011;15003;47.476;11.990;2022-08-25T03:10:46;4.18;;;3.78;;
27560;SDS011;15003;47.476;11.990;2022-08-25T03:13:12;4.40;;;4.00;;
27560;SDS011;15003;47.476;11.990;2022-08-25T03:15:38;4.15;;;3.75;;
27560;SDS011;15003;47.476;11.990;2022-08-25T03:18:05;4.40;;;4.00;;
27560;SDS011;15003;47.476;11.990;2022-08-25T03:20:30;4.78;;;4.35;;
27560;SDS011;15003;47.476;11.990;2022-08-25T03:22:56;4.63;;;3.85;;
27560;SDS011;15003;47.476;11.990;2022-08-25T03:25:22;4.38;;;3.97;;
27560;SDS011;15003;47.476;11.990;2022-08-25T03:27:48;4.60;;;4.07;;
27560;SDS011;15003;47.476;11.990;2022-08-25T03:30:14;4.18;;;3.78;;
27560;SDS011;15003;47.476;11.990;2022-08-25T03:32:40;4.65;;;4.05;;
27560;SDS011;15003;47.476;11.990;2022-08-25T03:35:06;4.07;;;3.67;;
27560;SDS011;15003;47.476;11.990;2022-08-25T03:37:33;5.13;;;4.32;;
27560;SDS011;15003;47.476;11.990;2022-08-25T03:40:06;4.13;;;3.72;;
27560;SDS011;15003;47.476;11.990;2022-08-25T03:42:34;4.45;;;4.00;;
27560;SDS011;15003;47.476;11.990;2022-08-25T03:45:05;4.60;;;4.20;;
27560;SDS011;15003;47.476;11.990;2022-08-25T03:47:31;5.10;;;4.00;;
27560;SDS011;15003;47.476;11.990;2022-08-25T03:49:58;5.20;;;3.65;;
27560;SDS011;15003;47.476;11.990;2022-08-25T03:52:23;5.13;;;4.15;;
27560;SDS011;15003;47.476;11.990;2022-08-25T03:54:50;6.18;;;4.20;;
27560;SDS011;15003;47.476;11.990;2022-08-25T03:57:15;5.03;;;4.32;;
27560;SDS011;15003;47.476;11.990;2022-08-25T03:59:41;5.05;;;4.25;;
27560;SDS011;15003;47.476;11.990;2022-08-25T04:02:07;5.72;;;4.30;;
27560;SDS011;15003;47.476;11.990;2022-08-25T04:04:33;5.45;;;4.30;;
27560;SDS011;15003;47.476;11.990;2022-08-25T04:06:59;4.70;;;4.30;;
27560;SDS011;15003;47.476;11.990;2022-08-25T04:09:25;4.80;;;3.72;;
27560;SDS011;15003;47.476;11.990;2022-08-25T04:11:51;4.63;;;4.18;;
27560;SDS011;15003;47.476;11.990;2022-08-25T04:14:17;5.43;;;4.03;;
27560;SDS011;15003;47.476;11.990;2022-08-25T04:16:44;4.95;;;4.40;;
27560;SDS011;15003;47.476;11.990;2022-08-25T04:19:10;5.63;;;3.85;;
27560;SDS011;15003;47.476;11.990;2022-08-25T04:21:37;4.70;;;4.13;;
27560;SDS011;15003;47.476;11.990;2022-08-25T04:24:04;4.70;;;4.22;;
27560;SDS011;15003;47.476;11.990;2022-08-25T04:26:34;5.15;;;4.43;;
27560;SDS011;15003;47.476;11.990;2022-08-25T04:29:04;6.88;;;4.47;;
27560;SDS011;15003;47.476;11.990;2022-08-25T04:31:32;4.80;;;4.32;;
27560;SDS011;15003;47.476;11.990;2022-08-25T04:34:00;4.72;;;3.78;;
27560;SDS011;15003;47.476;11.990;2022-08-25T04:36:27;5.35;;;4.60;;
27560;SDS011;15003;47.476;11.990;2022-08-25T04:38:53;4.95;;;4.22;;
27560;SDS011;15003;47.476;11.990;2022-08-25T04:41:21;5.53;;;4.38;;
27560;SDS011;15003;47.476;11.990;2022-08-25T04:43:48;5.00;;;4.47;;
27560;SDS011;15003;47.476;11.990;2022-08-25T04:46:20;4.40;;;4.00;;
27560;SDS011;15003;47.476;11.990;2022-08-25T04:51:17;4.40;;;3.85;;
27560;SDS011;15003;47.476;11.990;2022-08-25T04:53:46;4.28;;;3.58;;
27560;SDS011;15003;47.476;11.990;2022-08-25T04:56:16;6.30;;;4.18;;
27560;SDS011;15003;47.476;11.990;2022-08-25T04:58:45;5.25;;;4.70;;
27560;SDS011;15003;47.476;11.990;2022-08-25T05:01:14;4.65;;;4.15;;
27560;SDS011;15003;47.476;11.990;2022-08-25T05:03:43;4.97;;;4.35;;
27560;SDS011;15003;47.476;11.990;2022-08-25T05:06:10;6.15;;;5.03;;
27560;SDS011;15003;47.476;11.990;2022-08-25T05:08:36;5.32;;;4.65;;
27560;SDS011;15003;47.476;11.990;2022-08-25T05:11:06;5.47;;;4.32;;
27560;SDS011;15003;47.476;11.990;2022-08-25T05:13:34;5.45;;;4.78;;
27560;SDS011;15003;47.476;11.990;2022-08-25T05:16:00;9.38;;;4.70;;
27560;SDS011;15003;47.476;11.990;2022-08-25T05:18:27;5.53;;;4.72;;
27560;SDS011;15003;47.476;11.990;2022-08-25T05:20:55;4.93;;;4.43;;
27560;SDS011;15003;47.476;11.990;2022-08-25T05:23:26;5.60;;;4.65;;
27560;SDS011;15003;47.476;11.990;2022-08-25T05:25:52;5.20;;;4.70;;
27560;SDS011;15003;47.476;11.990;2022-08-25T05:28:18;5.72;;;4.68;;
27560;SDS011;15003;47.476;11.990;2022-08-25T05:30:45;5.53;;;4.90;;
27560;SDS011;15003;47.476;11.990;2022-08-25T05:33:12;5.78;;;4.38;;
27560;SDS011;15003;47.476;11.990;2022-08-25T05:35:38;5.97;;;5.07;;
27560;SDS011;15003;47.476;11.990;2022-08-25T05:38:04;5.43;;;4.88;;
27560;SDS011;15003;47.476;11.990;2022-08-25T05:40:30;5.43;;;4.90;;
27560;SDS011;15003;47.476;11.990;2022-08-25T05:42:57;5.40;;;4.90;;
27560;SDS011;15003;47.476;11.990;2022-08-25T05:45:23;5.10;;;4.40;;
27560;SDS011;15003;47.476;11.990;2022-08-25T05:47:49;5.18;;;4.70;;
27560;SDS011;15003;47.476;11.990;2022-08-25T05:50:15;7.20;;;5.43;;
27560;SDS011;15003;47.476;11.990;2022-08-25T05:52:41;4.95;;;4.50;;
27560;SDS011;15003;47.476;11.990;2022-08-25T05:55:08;5.15;;;4.45;;
27560;SDS011;15003;47.476;11.990;2022-08-25T05:57:34;6.00;;;5.03;;
27560;SDS011;15003;47.476;11.990;2022-08-25T06:00:02;5.97;;;5.03;;
27560;SDS011;15003;47.476;11.990;2022-08-25T06:02:30;6.40;;;4.97;;
27560;SDS011;15003;47.476;11.990;2022-08-25T06:04:56;7.90;;;5.18;;
27560;SDS011;15003;47.476;11.990;2022-08-25T06:07:21;5.60;;;5.07;;
27560;SDS011;15003;47.476;11.990;2022-08-25T06:09:47;5.53;;;5.03;;
27560;SDS011;15003;47.476;11.990;2022-08-25T06:12:13;5.63;;;4.97;;
27560;SDS011;15003;47.476;11.990;2022-08-25T06:14:40;5.45;;;4.95;;
27560;SDS011;15003;47.476;11.990;2022-08-25T06:17:06;4.97;;;4.47;;
27560;SDS011;15003;47.476;11.990;2022-08-25T06:19:32;5.40;;;4.50;;
27560;SDS011;15003;47.476;11.990;2022-08-25T06:21:58;6.30;;;5.20;;
27560;SDS011;15003;47.476;11.990;2022-08-25T06:24:24;10.73;;;5.97;;
27560;SDS011;15003;47.476;11.990;2022-08-25T06:26:52;7.82;;;5.75;;
27560;SDS011;15003;47.476;11.990;2022-08-25T06:29:19;7.55;;;5.82;;
27560;SDS011;15003;47.476;11.990;2022-08-25T06:31:45;6.30;;;5.05;;
27560;SDS011;15003;47.476;11.990;2022-08-25T06:34:11;10.50;;;5.80;;
27560;SDS011;15003;47.476;11.990;2022-08-25T06:36:37;7.50;;;6.13;;
27560;SDS011;15003;47.476;11.990;2022-08-25T06:39:04;6.30;;;5.10;;
27560;SDS011;15003;47.476;11.990;2022-08-25T06:41:30;7.15;;;5.55;;
27560;SDS011;15003;47.476;11.990;2022-08-25T06:43:57;7.30;;;5.18;;
27560;SDS011;15003;47.476;11.990;2022-08-25T06:46:23;5.60;;;5.07;;
27560;SDS011;15003;47.476;11.990;2022-08-25T06:48:50;5.40;;;4.70;;
27560;SDS011;15003;47.476;11.990;2022-08-25T06:51:17;6.78;;;4.93;;
27560;SDS011;15003;47.476;11.990;2022-08-25T06:53:45;6.25;;;5.22;;
27560;SDS011;15003;47.476;11.990;2022-08-25T06:56:12;6.53;;;5.40;;
27560;SDS011;15003;47.476;11.990;2022-08-25T06:58:39;5.15;;;4.65;;
27560;SDS011;15003;47.476;11.990;2022-08-25T07:01:06;5.15;;;4.65;;
27560;SDS011;15003;47.476;11.990;2022-08-25T07:03:42;7.10;;;5.20;;
27560;SDS011;15003;47.476;11.990;2022-08-25T07:06:08;5.50;;;5.00;;
27560;SDS011;15003;47.476;11.990;2022-08-25T07:08:34;6.47;;;5.53;;
27560;SDS011;15003;47.476;11.990;2022-08-25T07:11:04;6.10;;;4.97;;
27560;SDS011;15003;47.476;11.990;2022-08-25T07:13:31;7.63;;;5.72;;
27560;SDS011;15003;47.476;11.990;2022-08-25T07:15:58;5.28;;;4.78;;
27560;SDS011;15003;47.476;11.990;2022-08-25T07:18:23;8.73;;;5.97;;
27560;SDS011;15003;47.476;11.990;2022-08-25T07:20:49;8.20;;;5.88;;
27560;SDS011;15003;47.476;11.990;2022-08-25T07:23:15;7.93;;;5.35;;
27560;SDS011;15003;47.476;11.990;2022-08-25T07:25:41;7.70;;;5.25;;
27560;SDS011;15003;47.476;11.990;2022-08-25T07:28:06;6.07;;;5.10;;
27560;SDS011;15003;47.476;11.990;2022-08-25T07:30:32;7.15;;;4.88;;
27560;SDS011;15003;47.476;11.990;2022-08-25T07:32:58;5.78;;;4.80;;
27560;SDS011;15003;47.476;11.990;2022-08-25T07:35:23;4.78;;;4.30;;
27560;SDS011;15003;47.476;11.990;2022-08-25T07:37:50;6.10;;;4.28;;
27560;SDS011;15003;47.476;11.990;2022-08-25T07:40:20;7.57;;;5.35;;
27560;SDS011;15003;47.476;11.990;2022-08-25T07:43:00;4.70;;;4.20;;
27560;SDS011;15003;47.476;11.990;2022-08-25T07:45:31;5.50;;;4.68;;
27560;SDS011;15003;47.476;11.990;2022-08-25T07:48:03;5.88;;;4.35;;
27560;SDS011;15003;47.476;11.990;2022-08-25T07:50:32;4.63;;;3.83;;
27560;SDS011;15003;47.476;11.990;2022-08-25T07:52:59;4.85;;;4.45;;
27560;SDS011;15003;47.476;11.990;2022-08-25T07:55:25;4.32;;;3.92;;
27560;SDS011;15003;47.476;11.990;2022-08-25T07:57:53;5.30;;;4.65;;
27560;SDS011;15003;47.476;11.990;2022-08-25T08:00:20;4.55;;;4.15;;
27560;SDS011;15003;47.476;11.990;2022-08-25T08:02:46;5.07;;;4.30;;
27560;SDS011;15003;47.476;11.990;2022-08-25T08:05:12;4.95;;;4.53;;
27560;SDS011;15003;47.476;11.990;2022-08-25T08:07:38;4.72;;;4.22;;
27560;SDS011;15003;47.476;11.990;2022-08-25T08:10:06;4.50;;;4.10;;
27560;SDS011;15003;47.476;11.990;2022-08-25T08:12:35;4.63;;;4.18;;
27560;SDS011;15003;47.476;11.990;2022-08-25T08:15:02;4.90;;;4.40;;
27560;SDS011;15003;47.476;11.990;2022-08-25T08:17:28;4.15;;;3.75;;
27560;SDS011;15003;47.476;11.990;2022-08-25T08:19:54;5.25;;;4.18;;
27560;SDS011;15003;47.476;11.990;2022-08-25T08:22:20;6.35;;;3.97;;
27560;SDS011;15003;47.476;11.990;2022-08-25T08:24:45;5.20;;;4.70;;
27560;SDS011;15003;47.476;11.990;2022-08-25T08:27:12;4.50;;;3.92;;
27560;SDS011;15003;47.476;11.990;2022-08-25T08:29:39;4.28;;;3.63;;
27560;SDS011;15003;47.476;11.990;2022-08-25T08:32:07;3.83;;;3.53;;
27560;SDS011;15003;47.476;11.990;2022-08-25T08:34:35;4.35;;;3.80;;
27560;SDS011;15003;47.476;11.990;2022-08-25T08:37:02;4.22;;;3.80;;
27560;SDS011;15003;47.476;11.990;2022-08-25T08:39:28;4.07;;;3.67;;
27560;SDS011;15003;47.476;11.990;2022-08-25T08:52:47;4.45;;;4.05;;
27560;SDS011;15003;47.476;11.990;2022-08-25T08:55:25;4.00;;;3.60;;
27560;SDS011;15003;47.476;11.990;2022-08-25T08:58:25;3.92;;;3.55;;
27560;SDS011;15003;47.476;11.990;2022-08-25T09:01:08;3.95;;;3.20;;
27560;SDS011;15003;47.476;11.990;2022-08-25T09:03:45;3.67;;;3.40;;
27560;SDS011;15003;47.476;11.990;2022-08-25T09:08:54;4.10;;;3.70;;
27560;SDS011;15003;47.476;11.990;2022-08-25T09:11:27;4.55;;;3.75;;
27560;SDS011;15003;47.476;11.990;2022-08-25T09:14:26;4.53;;;3.97;;
27560;SDS011;15003;47.476;11.990;2022-08-25T09:29:02;3.70;;;3.40;;
27560;SDS011;15003;47.476;11.990;2022-08-25T09:31:34;4.05;;;3.75;;
27560;SDS011;15003;47.476;11.990;2022-08-25T09:34:03;4.05;;;3.75;;
27560;SDS011;15003;47.476;11.990;2022-08-25T09:36:40;3.67;;;3.38;;
27560;SDS011;15003;47.476;11.990;2022-08-25T09:39:07;3.53;;;3.22;;
27560;SDS011;15003;47.476;11.990;2022-08-25T09:41:40;3.95;;;3.53;;
27560;SDS011;15003;47.476;11.990;2022-08-25T09:44:21;3.60;;;3.30;;
27560;SDS011;15003;47.476;11.990;2022-08-25T09:47:23;3.60;;;3.30;;
27560;SDS011;15003;47.476;11.990;2022-08-25T09:49:58;3.83;;;3.20;;
27560;SDS011;15003;47.476;11.990;2022-08-25T09:52:34;3.63;;;3.33;;
27560;SDS011;15003;47.476;11.990;2022-08-25T10:00:09;3.95;;;3.30;;
27560;SDS011;15003;47.476;11.990;2022-08-25T10:02:40;3.10;;;2.80;;
27560;SDS011;15003;47.476;11.990;2022-08-25T10:05:18;3.63;;;3.33;;
27560;SDS011;15003;47.476;11.990;2022-08-25T10:07:55;4.22;;;3.50;;
27560;SDS011;15003;47.476;11.990;2022-08-25T10:13:20;4.60;;;3.50;;
27560;SDS011;15003;47.476;11.990;2022-08-25T10:16:08;7.20;;;4.03;;
27560;SDS011;15003;47.476;11.990;2022-08-25T10:19:01;4.28;;;3.65;;
27560;SDS011;15003;47.476;11.990;2022-08-25T10:21:35;5.35;;;3.95;;
27560;SDS011;15003;47.476;11.990;2022-08-25T10:24:03;6.30;;;4.50;;
27560;SDS011;15003;47.476;11.990;2022-08-25T10:35:28;3.47;;;3.17;;
27560;SDS011;15003;47.476;11.990;2022-08-25T10:41:38;3.20;;;2.75;;
27560;SDS011;15003;47.476;11.990;2022-08-25T10:43:38;3.25;;;2.95;;
27560;SDS011;15003;47.476;11.990;2022-08-25T10:49:17;3.50;;;3.20;;
27560;SDS011;15003;47.476;11.990;2022-08-25T10:54:48;3.60;;;3.10;;
27560;SDS011;15003;47.476;11.990;2022-08-25T10:57:41;3.60;;;3.22;;
27560;SDS011;15003;47.476;11.990;2022-08-25T11:00:25;3.60;;;3.22;;
27560;SDS011;15003;47.476;11.990;2022-08-25T11:05:58;3.30;;;3.00;;
27560;SDS011;15003;47.476;11.990;2022-08-25T11:08:49;3.85;;;3.50;;
27560;SDS011;15003;47.476;11.990;2022-08-25T11:11:37;3.78;;;2.92;;
27560;SDS011;15003;47.476;11.990;2022-08-25T11:14:23;3.53;;;3.22;;
27560;SDS011;15003;47.476;11.990;2022-08-25T11:17:17;3.17;;;2.80;;
27560;SDS011;15003;47.476;11.990;2022-08-25T11:19:51;3.80;;;3.35;;
27560;SDS011;15003;47.476;11.990;2022-08-25T11:22:22;4.40;;;2.83;;
27560;SDS011;15003;47.476;11.990;2022-08-25T11:30:22;2.72;;;2.53;;
27560;SDS011;15003;47.476;11.990;2022-08-25T11:32:49;4.47;;;3.13;;
27560;SDS011;15003;47.476;11.990;2022-08-25T11:35:19;2.70;;;2.50;;
27560;SDS011;15003;47.476;11.990;2022-08-25T11:47:05;4.32;;;3.22;;
27560;SDS011;15003;47.476;11.990;2022-08-25T11:49:47;3.60;;;2.95;;
27560;SDS011;15003;47.476;11.990;2022-08-25T11:57:47;3.38;;;3.08;;
27560;SDS011;15003;47.476;11.990;2022-08-25T12:03:44;3.35;;;3.05;;
27560;SDS011;15003;47.476;11.990;2022-08-25T12:27:19;3.25;;;2.95;;
27560;SDS011;15003;47.476;11.990;2022-08-25T12:29:57;4.15;;;3.10;;
27560;SDS011;15003;47.476;11.990;2022-08-25T12:38:17;3.55;;;3.08;;
27560;SDS011;15003;47.476;11.990;2022-08-25T12:43:41;3.50;;;3.20;;
27560;SDS011;15003;47.476;11.990;2022-08-25T12:49:01;3.20;;;2.90;;
27560;SDS011;15003;47.476;11.990;2022-08-25T12:52:06;3.42;;;3.05;;
27560;SDS011;15003;47.476;11.990;2022-08-25T13:00:19;3.10;;;2.80;;
27560;SDS011;15003;47.476;11.990;2022-08-25T13:06:13;3.25;;;2.80;;
27560;SDS011;15003;47.476;11.990;2022-08-25T13:11:31;3.30;;;3.05;;
27560;SDS011;15003;47.476;11.990;2022-08-25T13:14:10;3.83;;;3.42;;
27560;SDS011;15003;47.476;11.990;2022-08-25T13:16:57;3.22;;;3.00;;
27560;SDS011;15003;47.476;11.990;2022-08-25T13:19:25;4.40;;;2.90;;
27560;SDS011;15003;47.476;11.990;2022-08-25T13:21:52;5.88;;;3.17;;
27560;SDS011;15003;47.476;11.990;2022-08-25T13:26:51;3.80;;;3.40;;
27560;SDS011;15003;47.476;11.990;2022-08-25T13:29:22;4.00;;;3.40;;
27560;SDS011;15003;47.476;11.990;2022-08-25T13:31:53;3.50;;;3.20;;
27560;SDS011;15003;47.476;11.990;2022-08-25T13:34:24;3.60;;;3.30;;
27560;SDS011;15003;47.476;11.990;2022-08-25T13:37:06;4.10;;;3.40;;
27560;SDS011;15003;47.476;11.990;2022-08-25T13:39:35;3.33;;;3.03;;
27560;SDS011;15003;47.476;11.990;2022-08-25T13:42:03;3.45;;;3.10;;
27560;SDS011;15003;47.476;11.990;2022-08-25T13:44:37;3.50;;;3.20;;
27560;SDS011;15003;47.476;11.990;2022-08-25T13:47:08;4.50;;;2.92;;
27560;SDS011;15003;47.476;11.990;2022-08-25T13:55:21;3.00;;;2.80;;
27560;SDS011;15003;47.476;11.990;2022-08-25T13:57:52;4.57;;;3.20;;
27560;SDS011;15003;47.476;11.990;2022-08-25T14:00:26;4.10;;;3.03;;
27560;SDS011;15003;47.476;11.990;2022-08-25T14:02:57;3.13;;;2.80;;
27560;SDS011;15003;47.476;11.990;2022-08-25T14:05:39;3.22;;;2.67;;
27560;SDS011;15003;47.476;11.990;2022-08-25T14:08:25;3.22;;;2.92;;
27560;SDS011;15003;47.476;11.990;2022-08-25T14:11:07;3.13;;;2.83;;
27560;SDS011;15003;47.476;11.990;2022-08-25T14:13:39;3.22;;;2.95;;
27560;SDS011;15003;47.476;11.990;2022-08-25T14:16:17;2.75;;;2.55;;
27560;SDS011;15003;47.476;11.990;2022-08-25T14:18:48;3.67;;;2.80;;
27560;SDS011;15003;47.476;11.990;2022-08-25T14:21:18;3.20;;;3.00;;
27560;SDS011;15003;47.476;11.990;2022-08-25T14:23:49;3.13;;;2.92;;
27560;SDS011;15003;47.476;11.990;2022-08-25T14:26:17;3.28;;;2.97;;
27560;SDS011;15003;47.476;11.990;2022-08-25T14:28:43;3.50;;;3.20;;
27560;SDS011;15003;47.476;11.990;2022-08-25T14:31:29;3.35;;;2.92;;
27560;SDS011;15003;47.476;11.990;2022-08-25T14:34:02;2.90;;;2.70;;
27560;SDS011;15003;47.476;11.990;2022-08-25T14:36:33;3.22;;;2.65;;
27560;SDS011;15003;47.476;11.990;2022-08-25T14:39:00;4.22;;;3.17;;
27560;SDS011;15003;47.476;11.990;2022-08-25T14:41:26;3.30;;;3.00;;
27560;SDS011;15003;47.476;11.990;2022-08-25T14:43:52;2.92;;;2.63;;
27560;SDS011;15003;47.476;11.990;2022-08-25T14:46:22;3.78;;;3.40;;
27560;SDS011;15003;47.476;11.990;2022-08-25T14:48:53;3.58;;;2.88;;
27560;SDS011;15003;47.476;11.990;2022-08-25T14:51:23;3.22;;;2.92;;
27560;SDS011;15003;47.476;11.990;2022-08-25T14:53:51;3.00;;;2.67;;
27560;SDS011;15003;47.476;11.990;2022-08-25T14:56:19;2.60;;;2.40;;
27560;SDS011;15003;47.476;11.990;2022-08-25T14:58:46;3.40;;;2.90;;
27560;SDS011;15003;47.476;11.990;2022-08-25T15:01:12;4.10;;;3.10;;
27560;SDS011;15003;47.476;11.990;2022-08-25T15:03:42;3.10;;;2.80;;
27560;SDS011;15003;47.476;11.990;2022-08-25T15:06:12;2.88;;;2.67;;
27560;SDS011;15003;47.476;11.990;2022-08-25T15:08:40;3.30;;;2.75;;
27560;SDS011;15003;47.476;11.990;2022-08-25T15:11:06;3.70;;;3.00;;
27560;SDS011;15003;47.476;11.990;2022-08-25T15:13:32;3.17;;;2.70;;
27560;SDS011;15003;47.476;11.990;2022-08-25T15:15:58;4.72;;;2.92;;
27560;SDS011;15003;47.476;11.990;2022-08-25T15:18:24;3.25;;;2.95;;
27560;SDS011;15003;47.476;11.990;2022-08-25T15:20:49;3.63;;;3.05;;
27560;SDS011;15003;47.476;11.990;2022-08-25T15:23:16;3.78;;;2.92;;
27560;SDS011;15003;47.476;11.990;2022-08-25T15:25:43;3.17;;;2.88;;
27560;SDS011;15003;47.476;11.990;2022-08-25T15:28:12;3.97;;;3.15;;
27560;SDS011;15003;47.476;11.990;2022-08-25T15:30:38;3.33;;;3.00;;
27560;SDS011;15003;47.476;11.990;2022-08-25T15:33:03;3.00;;;2.70;;
27560;SDS011;15003;47.476;11.990;2022-08-25T15:35:29;2.70;;;2.50;;
27560;SDS011;15003;47.476;11.990;2022-08-25T15:37:55;3.08;;;2.80;;
27560;SDS011;15003;47.476;11.990;2022-08-25T15:40:21;4.07;;;3.38;;
27560;SDS011;15003;47.476;11.990;2022-08-25T15:42:47;4.35;;;3.58;;
27560;SDS011;15003;47.476;11.990;2022-08-25T15:45:13;3.25;;;2.92;;
27560;SDS011;15003;47.476;11.990;2022-08-25T15:47:38;5.68;;;3.33;;
27560;SDS011;15003;47.476;11.990;2022-08-25T15:50:09;4.30;;;3.75;;
27560;SDS011;15003;47.476;11.990;2022-08-25T15:52:41;4.85;;;3.83;;
27560;SDS011;15003;47.476;11.990;2022-08-25T15:55:07;5.97;;;3.80;;
27560;SDS011;15003;47.476;11.990;2022-08-25T15:57:36;4.22;;;3.40;;
27560;SDS011;15003;47.476;11.990;2022-08-25T16:00:06;4.97;;;3.80;;
27560;SDS011;15003;47.476;11.990;2022-08-25T16:02:34;5.60;;;3.80;;
27560;SDS011;15003;47.476;11.990;2022-08-25T16:04:59;4.15;;;3.20;;
27560;SDS011;15003;47.476;11.990;2022-08-25T16:07:25;5.45;;;3.70;;
27560;SDS011;15003;47.476;11.990;2022-08-25T16:09:55;4.68;;;3.10;;
27560;SDS011;15003;47.476;11.990;2022-08-25T16:12:22;3.38;;;2.90;;
27560;SDS011;15003;47.476;11.990;2022-08-25T16:14:49;8.65;;;4.35;;
27560;SDS011;15003;47.476;11.990;2022-08-25T16:17:16;4.75;;;3.50;;
27560;SDS011;15003;47.476;11.990;2022-08-25T16:19:43;4.20;;;3.50;;
27560;SDS011;15003;47.476;11.990;2022-08-25T16:22:10;5.97;;;3.80;;
27560;SDS011;15003;47.476;11.990;2022-08-25T16:24:39;4.75;;;3.60;;
27560;SDS011;15003;47.476;11.990;2022-08-25T16:27:06;4.80;;;3.30;;
27560;SDS011;15003;47.476;11.990;2022-08-25T16:29:36;4.80;;;3.63;;
27560;SDS011;15003;47.476;11.990;2022-08-25T16:32:06;3.92;;;3.40;;
27560;SDS011;15003;47.476;11.990;2022-08-25T16:34:34;4.75;;;3.47;;
27560;SDS011;15003;47.476;11.990;2022-08-25T16:37:00;3.85;;;3.30;;
27560;SDS011;15003;47.476;11.990;2022-08-25T16:39:26;4.00;;;3.05;;
27560;SDS011;15003;47.476;11.990;2022-08-25T16:41:52;6.65;;;3.50;;
27560;SDS011;15003;47.476;11.990;2022-08-25T16:44:18;5.30;;;3.47;;
27560;SDS011;15003;47.476;11.990;2022-08-25T16:46:45;5.95;;;3.63;;
27560;SDS011;15003;47.476;11.990;2022-08-25T16:49:12;4.15;;;3.33;;
27560;SDS011;15003;47.476;11.990;2022-08-25T16:51:39;6.00;;;3.53;;
27560;SDS011;15003;47.476;11.990;2022-08-25T16:54:07;5.20;;;3.70;;
27560;SDS011;15003;47.476;11.990;2022-08-25T16:56:35;3.95;;;3.25;;
27560;SDS011;15003;47.476;11.990;2022-08-25T16:59:02;5.22;;;3.05;;
27560;SDS011;15003;47.476;11.990;2022-08-25T17:01:30;6.32;;;3.70;;
27560;SDS011;15003;47.476;11.990;2022-08-25T17:03:57;5.50;;;3.30;;
27560;SDS011;15003;47.476;11.990;2022-08-25T17:06:24;5.50;;;3.42;;